Island Lake, Canada
Current Conditions -  °F | °C
As of 8:00 PM on Saturday 25 Oct 2014 (Local Time) from CYIV Reporting Station
Overcast Overcast  
Wind Chill: 30°   Ceiling: 2500
Heat Index: 39°   Visibility: 15mi
Dew Point: 28°   Wind: 17mph
Humidity: 65%   Direction: 300°WNW
Pressure: 29.84"   Gusts: 26mph
Location:  53.85°N, 94.65°W
Report Text: CYIV 260100Z 30015G23KT 15SM OVC025 04/M02 A2984 RMK SC8SLP118
Loading
Personal Weather Stations






























Interactive Weather Map
Tropical Storm Tracking
New forecast layout! Learn more

10-Day Weather Forecast

Advertisements
Track Severe Weather on mobile